読者です 読者をやめる 読者になる 読者になる

今朝の成田(2017/05/10)

ANA818/JA802A(B788)

JJP12/JA01JJ(A320) アングリバード c/s

ANA832/JA617A(B763)

CPA524/B-HNO(B773)

JJP40/JA14JJ(A320)

CPA006/B-LJL(B748)

VNL100/JA09VA(A320)

NCA133/JA15KZ(B748)

FDX5392/N880FD(B77L)

ANA179/JA820A(B788)

JAL724/JA868J(B789)

THA640/HS-TUB(A388)

AMX058/N783AM(B788)

AAR198/HL7507(B763)

ANA814/JA623A(B763) with winglet

FDX31/N862FD(B77L)

JAL740/JA845J(B788)

FDX15/N854FD(B77L)

JAL752/JA836J(B788)

JAL726/JA861J(B789)

HVN310/VN-A864(B789)

CRK606/B-LPI(A320)

PAC213/N852GT(B748)

SIA638/9V-SWG(B77W)

NCA105/JA16KZ(B748)

NCA228/JA18KZ(B748)

RJAA 092100Z 12002KT 3500 R16R/P1800N R16L/1400VP1800U -RA BR FEW010 SCT060 OVC090 16/15 Q1015 TEMPO FEW008 BKN012

RJAA 092200Z 13004KT 5000 BR FEW002 SCT006 BKN050 16/16 Q1016 TEMPO 4000 -RA BR FEW005 BKN008

今朝の成田は小雨に煙っているようです。